sensor_id;sensor_type;location;lat;lon;timestamp;P1;P2;P0
65973;PMS5003;52729;54.906;73.316;2022-10-28T00:00:30;21.00;17.00;5.00
65973;PMS5003;52729;54.906;73.316;2022-10-28T00:03:40;19.00;17.00;5.00
65973;PMS5003;52729;54.906;73.316;2022-10-28T00:06:41;14.00;13.00;5.00
65973;PMS5003;52729;54.906;73.316;2022-10-28T00:09:42;11.00;9.67;3.00
65973;PMS5003;52729;54.906;73.316;2022-10-28T00:12:44;15.00;13.00;5.00
65973;PMS5003;52729;54.906;73.316;2022-10-28T00:15:50;17.33;16.33;6.33
65973;PMS5003;52729;54.906;73.316;2022-10-28T00:18:52;10.00;9.00;2.00
65973;PMS5003;52729;54.906;73.316;2022-10-28T00:22:03;3.00;2.67;0.00
65973;PMS5003;52729;54.906;73.316;2022-10-28T00:25:04;1.00;1.00;0.67
65973;PMS5003;52729;54.906;73.316;2022-10-28T00:28:05;0.00;0.00;0.00
65973;PMS5003;52729;54.906;73.316;2022-10-28T00:31:07;0.00;0.00;0.00
65973;PMS5003;52729;54.906;73.316;2022-10-28T00:34:10;0.00;0.00;0.00
65973;PMS5003;52729;54.906;73.316;2022-10-28T00:37:11;0.00;0.00;0.00
65973;PMS5003;52729;54.906;73.316;2022-10-28T00:40:12;0.00;0.00;0.00
65973;PMS5003;52729;54.906;73.316;2022-10-28T00:43:13;0.00;0.00;0.00
65973;PMS5003;52729;54.906;73.316;2022-10-28T00:49:29;4.00;2.00;0.00
65973;PMS5003;52729;54.906;73.316;2022-10-28T00:52:32;4.00;2.00;0.00
65973;PMS5003;52729;54.906;73.316;2022-10-28T00:55:38;4.00;3.00;0.00
65973;PMS5003;52729;54.906;73.316;2022-10-28T00:58:45;2.00;2.00;0.00
65973;PMS5003;52729;54.906;73.316;2022-10-28T01:01:48;4.00;3.00;0.00
65973;PMS5003;52729;54.906;73.316;2022-10-28T01:04:49;2.00;1.00;0.00
65973;PMS5003;52729;54.906;73.316;2022-10-28T01:07:50;2.00;2.00;0.00
65973;PMS5003;52729;54.906;73.316;2022-10-28T01:14:03;2.00;2.00;0.00
65973;PMS5003;52729;54.906;73.316;2022-10-28T01:33:03;4.00;3.00;0.00
65973;PMS5003;52729;54.906;73.316;2022-10-28T01:39:32;3.00;2.00;0.00
65973;PMS5003;52729;54.906;73.316;2022-10-28T01:42:49;0.00;0.00;0.00
65973;PMS5003;52729;54.906;73.316;2022-10-28T01:46:10;0.00;0.00;0.00
65973;PMS5003;52729;54.906;73.316;2022-10-28T01:52:19;0.00;0.00;0.00
65973;PMS5003;52729;54.906;73.316;2022-10-28T01:55:26;2.00;1.00;0.00
65973;PMS5003;52729;54.906;73.316;2022-10-28T01:58:29;17.67;16.00;6.33
65973;PMS5003;52729;54.906;73.316;2022-10-28T02:01:31;42.67;32.33;18.00
65973;PMS5003;52729;54.906;73.316;2022-10-28T02:04:35;40.33;32.00;17.33
65973;PMS5003;52729;54.906;73.316;2022-10-28T02:07:41;27.67;22.67;11.33
65973;PMS5003;52729;54.906;73.316;2022-10-28T02:10:50;11.33;8.33;2.67
65973;PMS5003;52729;54.906;73.316;2022-10-28T02:14:18;4.33;2.00;0.00
65973;PMS5003;52729;54.906;73.316;2022-10-28T02:17:37;0.00;0.00;0.00
65973;PMS5003;52729;54.906;73.316;2022-10-28T02:20:54;0.00;0.00;0.00
65973;PMS5003;52729;54.906;73.316;2022-10-28T02:23:57;4.00;3.00;0.00
65973;PMS5003;52729;54.906;73.316;2022-10-28T02:27:10;2.00;2.00;0.00
65973;PMS5003;52729;54.906;73.316;2022-10-28T02:30:18;2.00;2.00;0.00
65973;PMS5003;52729;54.906;73.316;2022-10-28T02:33:21;0.00;0.00;0.00
65973;PMS5003;52729;54.906;73.316;2022-10-28T02:36:23;0.00;0.00;0.00
65973;PMS5003;52729;54.906;73.316;2022-10-28T02:39:38;0.33;0.00;0.00
65973;PMS5003;52729;54.906;73.316;2022-10-28T02:42:49;1.00;0.00;0.00
65973;PMS5003;52729;54.906;73.316;2022-10-28T02:45:52;1.00;1.00;0.00
65973;PMS5003;52729;54.906;73.316;2022-10-28T02:48:56;0.33;0.00;0.00
65973;PMS5003;52729;54.906;73.316;2022-10-28T02:51:59;4.67;4.67;0.67
65973;PMS5003;52729;54.906;73.316;2022-10-28T02:55:03;1.33;0.00;0.00
65973;PMS5003;52729;54.906;73.316;2022-10-28T02:58:04;0.00;0.00;0.00
65973;PMS5003;52729;54.906;73.316;2022-10-28T03:01:06;0.00;0.00;0.00
65973;PMS5003;52729;54.906;73.316;2022-10-28T03:04:12;0.00;0.00;0.00
65973;PMS5003;52729;54.906;73.316;2022-10-28T03:07:18;0.00;0.00;0.00
65973;PMS5003;52729;54.906;73.316;2022-10-28T03:10:19;0.00;0.00;0.00
65973;PMS5003;52729;54.906;73.316;2022-10-28T03:13:20;0.33;0.00;0.00
65973;PMS5003;52729;54.906;73.316;2022-10-28T03:16:32;2.67;2.67;0.00
65973;PMS5003;52729;54.906;73.316;2022-10-28T03:19:43;3.67;3.67;0.00
65973;PMS5003;52729;54.906;73.316;2022-10-28T03:22:44;5.00;4.00;0.00
65973;PMS5003;52729;54.906;73.316;2022-10-28T03:25:45;3.00;3.00;0.00
65973;PMS5003;52729;54.906;73.316;2022-10-28T03:28:46;4.00;3.33;0.00
65973;PMS5003;52729;54.906;73.316;2022-10-28T03:31:50;2.00;2.00;0.00
65973;PMS5003;52729;54.906;73.316;2022-10-28T03:34:52;1.33;1.33;0.00
65973;PMS5003;52729;54.906;73.316;2022-10-28T03:37:53;0.00;0.00;0.00
65973;PMS5003;52729;54.906;73.316;2022-10-28T03:40:58;0.00;0.00;0.00
65973;PMS5003;52729;54.906;73.316;2022-10-28T03:44:00;0.00;0.00;0.00
65973;PMS5003;52729;54.906;73.316;2022-10-28T03:47:01;0.00;0.00;0.00
65973;PMS5003;52729;54.906;73.316;2022-10-28T03:50:02;0.00;0.00;0.00
65973;PMS5003;52729;54.906;73.316;2022-10-28T03:53:03;0.00;0.00;0.00
65973;PMS5003;52729;54.906;73.316;2022-10-28T03:56:04;0.33;0.00;0.00
65973;PMS5003;52729;54.906;73.316;2022-10-28T03:59:07;0.00;0.00;0.00
65973;PMS5003;52729;54.906;73.316;2022-10-28T04:02:08;1.67;1.67;0.00
65973;PMS5003;52729;54.906;73.316;2022-10-28T04:05:09;2.00;2.00;0.00
65973;PMS5003;52729;54.906;73.316;2022-10-28T04:08:16;0.00;0.00;0.00
65973;PMS5003;52729;54.906;73.316;2022-10-28T04:11:28;0.00;0.00;0.00
65973;PMS5003;52729;54.906;73.316;2022-10-28T04:14:29;4.33;3.33;0.00
65973;PMS5003;52729;54.906;73.316;2022-10-28T04:17:29;1.00;0.67;0.00
65973;PMS5003;52729;54.906;73.316;2022-10-28T04:20:34;0.00;0.00;0.00
65973;PMS5003;52729;54.906;73.316;2022-10-28T04:23:35;0.00;0.00;0.00
65973;PMS5003;52729;54.906;73.316;2022-10-28T04:26:36;0.00;0.00;0.00
65973;PMS5003;52729;54.906;73.316;2022-10-28T04:29:37;0.00;0.00;0.00
65973;PMS5003;52729;54.906;73.316;2022-10-28T04:32:42;0.00;0.00;0.00
65973;PMS5003;52729;54.906;73.316;2022-10-28T04:35:43;0.00;0.00;0.00
65973;PMS5003;52729;54.906;73.316;2022-10-28T04:38:55;0.00;0.00;0.00
65973;PMS5003;52729;54.906;73.316;2022-10-28T04:41:55;0.00;0.00;0.00
65973;PMS5003;52729;54.906;73.316;2022-10-28T04:44:56;0.00;0.00;0.00
65973;PMS5003;52729;54.906;73.316;2022-10-28T04:47:58;0.00;0.00;0.00
65973;PMS5003;52729;54.906;73.316;2022-10-28T04:50:59;0.00;0.00;0.00
65973;PMS5003;52729;54.906;73.316;2022-10-28T04:54:00;0.00;0.00;0.00
65973;PMS5003;52729;54.906;73.316;2022-10-28T04:57:02;0.00;0.00;0.00
65973;PMS5003;52729;54.906;73.316;2022-10-28T05:00:03;0.00;0.00;0.00
65973;PMS5003;52729;54.906;73.316;2022-10-28T05:03:14;0.00;0.00;0.00
65973;PMS5003;52729;54.906;73.316;2022-10-28T05:06:15;0.00;0.00;0.00
65973;PMS5003;52729;54.906;73.316;2022-10-28T05:09:16;0.00;0.00;0.00
65973;PMS5003;52729;54.906;73.316;2022-10-28T05:12:22;0.00;0.00;0.00
65973;PMS5003;52729;54.906;73.316;2022-10-28T05:15:23;0.00;0.00;0.00
65973;PMS5003;52729;54.906;73.316;2022-10-28T05:18:30;1.00;1.00;0.00
65973;PMS5003;52729;54.906;73.316;2022-10-28T05:21:31;1.00;1.00;0.00
65973;PMS5003;52729;54.906;73.316;2022-10-28T05:24:37;0.00;0.00;0.00
65973;PMS5003;52729;54.906;73.316;2022-10-28T05:27:49;0.33;0.00;0.00
65973;PMS5003;52729;54.906;73.316;2022-10-28T05:30:50;0.00;0.00;0.00
65973;PMS5003;52729;54.906;73.316;2022-10-28T05:33:51;0.00;0.00;0.00
65973;PMS5003;52729;54.906;73.316;2022-10-28T05:36:52;0.00;0.00;0.00
65973;PMS5003;52729;54.906;73.316;2022-10-28T05:39:53;2.00;0.67;0.00
65973;PMS5003;52729;54.906;73.316;2022-10-28T05:43:00;1.00;1.00;0.00
65973;PMS5003;52729;54.906;73.316;2022-10-28T05:46:01;2.00;2.00;0.00
65973;PMS5003;52729;54.906;73.316;2022-10-28T05:49:03;3.67;2.00;0.00
65973;PMS5003;52729;54.906;73.316;2022-10-28T05:52:04;4.33;3.67;0.00
65973;PMS5003;52729;54.906;73.316;2022-10-28T05:55:05;3.33;3.33;0.00
65973;PMS5003;52729;54.906;73.316;2022-10-28T05:58:06;2.33;2.00;0.00
65973;PMS5003;52729;54.906;73.316;2022-10-28T06:01:09;3.00;2.00;0.00
65973;PMS5003;52729;54.906;73.316;2022-10-28T06:04:16;6.00;5.67;0.67
65973;PMS5003;52729;54.906;73.316;2022-10-28T06:07:17;8.33;8.33;3.33
65973;PMS5003;52729;54.906;73.316;2022-10-28T06:10:18;5.00;4.67;1.33
65973;PMS5003;52729;54.906;73.316;2022-10-28T06:13:19;2.00;2.00;1.00
65973;PMS5003;52729;54.906;73.316;2022-10-28T06:16:24;2.00;2.00;0.00
65973;PMS5003;52729;54.906;73.316;2022-10-28T06:19:25;6.00;5.00;1.33
65973;PMS5003;52729;54.906;73.316;2022-10-28T06:22:26;5.33;4.67;2.00
65973;PMS5003;52729;54.906;73.316;2022-10-28T06:25:26;4.00;3.00;1.00
65973;PMS5003;52729;54.906;73.316;2022-10-28T06:28:28;4.00;3.00;1.00
65973;PMS5003;52729;54.906;73.316;2022-10-28T06:31:34;3.00;3.00;0.67
65973;PMS5003;52729;54.906;73.316;2022-10-28T06:34:35;2.00;0.00;0.00
65973;PMS5003;52729;54.906;73.316;2022-10-28T06:37:36;1.00;1.00;0.00
65973;PMS5003;52729;54.906;73.316;2022-10-28T06:40:36;3.00;2.00;0.00
65973;PMS5003;52729;54.906;73.316;2022-10-28T06:43:37;2.00;2.00;0.00
65973;PMS5003;52729;54.906;73.316;2022-10-28T06:46:38;3.00;3.00;0.00
65973;PMS5003;52729;54.906;73.316;2022-10-28T06:49:39;2.00;2.00;0.00
65973;PMS5003;52729;54.906;73.316;2022-10-28T06:52:40;2.00;1.00;0.00
65973;PMS5003;52729;54.906;73.316;2022-10-28T06:56:04;3.00;3.00;0.00
65973;PMS5003;52729;54.906;73.316;2022-10-28T06:59:05;3.00;2.00;0.00
65973;PMS5003;52729;54.906;73.316;2022-10-28T07:02:10;2.00;2.00;0.00
65973;PMS5003;52729;54.906;73.316;2022-10-28T07:05:11;1.00;1.00;0.00
65973;PMS5003;52729;54.906;73.316;2022-10-28T07:08:22;1.00;1.00;0.00
65973;PMS5003;52729;54.906;73.316;2022-10-28T07:11:33;0.00;0.00;0.00
65973;PMS5003;52729;54.906;73.316;2022-10-28T07:14:34;2.00;1.00;0.00
65973;PMS5003;52729;54.906;73.316;2022-10-28T07:17:35;8.33;6.00;2.67
65973;PMS5003;52729;54.906;73.316;2022-10-28T07:20:36;11.67;9.00;4.00
65973;PMS5003;52729;54.906;73.316;2022-10-28T07:23:37;9.00;6.33;3.00
65973;PMS5003;52729;54.906;73.316;2022-10-28T07:26:43;1.67;1.33;0.00
65973;PMS5003;52729;54.906;73.316;2022-10-28T07:29:44;1.00;1.00;0.00
65973;PMS5003;52729;54.906;73.316;2022-10-28T07:32:56;2.67;2.00;0.00
65973;PMS5003;52729;54.906;73.316;2022-10-28T07:36:04;0.00;0.00;0.00
65973;PMS5003;52729;54.906;73.316;2022-10-28T07:39:06;3.00;1.00;0.00
65973;PMS5003;52729;54.906;73.316;2022-10-28T07:42:07;3.00;2.33;0.00
65973;PMS5003;52729;54.906;73.316;2022-10-28T07:45:08;4.00;3.00;0.00
65973;PMS5003;52729;54.906;73.316;2022-10-28T07:48:09;3.00;3.00;0.00
65973;PMS5003;52729;54.906;73.316;2022-10-28T07:51:11;1.00;1.00;0.00
65973;PMS5003;52729;54.906;73.316;2022-10-28T07:54:12;1.00;0.00;0.00
65973;PMS5003;52729;54.906;73.316;2022-10-28T07:57:13;0.33;0.00;0.00
65973;PMS5003;52729;54.906;73.316;2022-10-28T08:00:14;0.00;0.00;0.00
65973;PMS5003;52729;54.906;73.316;2022-10-28T08:03:25;1.33;1.00;0.00
65973;PMS5003;52729;54.906;73.316;2022-10-28T08:06:29;6.00;6.00;2.67
65973;PMS5003;52729;54.906;73.316;2022-10-28T08:09:30;3.00;3.00;1.00
65973;PMS5003;52729;54.906;73.316;2022-10-28T08:12:41;1.67;1.67;0.00
65973;PMS5003;52729;54.906;73.316;2022-10-28T08:15:53;2.00;2.00;0.00
65973;PMS5003;52729;54.906;73.316;2022-10-28T08:18:55;1.00;1.00;0.00
65973;PMS5003;52729;54.906;73.316;2022-10-28T08:21:59;0.00;0.00;0.00
65973;PMS5003;52729;54.906;73.316;2022-10-28T08:25:01;1.00;1.00;0.00
65973;PMS5003;52729;54.906;73.316;2022-10-28T08:28:02;3.00;2.00;0.00
65973;PMS5003;52729;54.906;73.316;2022-10-28T08:31:03;1.67;0.67;0.00
65973;PMS5003;52729;54.906;73.316;2022-10-28T08:34:08;6.00;4.33;1.67
65973;PMS5003;52729;54.906;73.316;2022-10-28T08:37:09;4.00;3.00;0.33
65973;PMS5003;52729;54.906;73.316;2022-10-28T08:40:11;1.33;1.33;0.00
65973;PMS5003;52729;54.906;73.316;2022-10-28T08:43:18;0.00;0.00;0.00
65973;PMS5003;52729;54.906;73.316;2022-10-28T08:49:38;0.33;0.33;0.00
65973;PMS5003;52729;54.906;73.316;2022-10-28T08:52:41;0.00;0.00;0.00
65973;PMS5003;52729;54.906;73.316;2022-10-28T08:55:47;2.00;0.00;0.00
65973;PMS5003;52729;54.906;73.316;2022-10-28T08:58:54;1.00;1.00;0.00
65973;PMS5003;52729;54.906;73.316;2022-10-28T09:02:01;1.00;1.00;0.00
65973;PMS5003;52729;54.906;73.316;2022-10-28T09:05:10;2.00;1.00;0.00
65973;PMS5003;52729;54.906;73.316;2022-10-28T09:08:24;2.00;2.00;0.00
65973;PMS5003;52729;54.906;73.316;2022-10-28T09:18:57;2.00;1.00;0.00
65973;PMS5003;52729;54.906;73.316;2022-10-28T09:21:50;0.00;0.00;0.00
65973;PMS5003;52729;54.906;73.316;2022-10-28T09:25:03;2.00;1.00;0.00
65973;PMS5003;52729;54.906;73.316;2022-10-28T09:31:44;1.00;1.00;0.00
65973;PMS5003;52729;54.906;73.316;2022-10-28T09:34:58;1.67;1.33;0.00
65973;PMS5003;52729;54.906;73.316;2022-10-28T11:48:26;2.67;2.00;0.00
65973;PMS5003;52729;54.906;73.316;2022-10-28T12:10:28;1.33;1.00;0.00
65973;PMS5003;52729;54.906;73.316;2022-10-28T12:16:48;1.00;1.00;0.00
65973;PMS5003;52729;54.906;73.316;2022-10-28T12:20:02;3.00;3.00;0.00
65973;PMS5003;52729;54.906;73.316;2022-10-28T12:23:09;2.33;2.33;0.00
65973;PMS5003;52729;54.906;73.316;2022-10-28T12:26:13;1.00;1.00;0.00
65973;PMS5003;52729;54.906;73.316;2022-10-28T12:29:49;2.00;2.00;0.00
65973;PMS5003;52729;54.906;73.316;2022-10-28T12:32:42;2.00;2.00;0.00
65973;PMS5003;52729;54.906;73.316;2022-10-28T12:35:45;2.00;2.00;0.00
65973;PMS5003;52729;54.906;73.316;2022-10-28T12:41:58;2.00;2.00;0.00
65973;PMS5003;52729;54.906;73.316;2022-10-28T12:45:00;2.00;0.67;0.00
65973;PMS5003;52729;54.906;73.316;2022-10-28T12:48:16;1.00;1.00;0.00
65973;PMS5003;52729;54.906;73.316;2022-10-28T12:51:32;1.00;1.00;0.00
65973;PMS5003;52729;54.906;73.316;2022-10-28T12:54:39;1.33;0.00;0.00
65973;PMS5003;52729;54.906;73.316;2022-10-28T12:57:42;1.67;1.00;0.00
65973;PMS5003;52729;54.906;73.316;2022-10-28T13:00:45;1.00;1.00;0.00
65973;PMS5003;52729;54.906;73.316;2022-10-28T13:03:48;2.00;2.00;0.00
65973;PMS5003;52729;54.906;73.316;2022-10-28T13:07:53;1.00;0.00;0.00
65973;PMS5003;52729;54.906;73.316;2022-10-28T13:10:31;2.00;1.00;0.00
65973;PMS5003;52729;54.906;73.316;2022-10-28T13:13:44;0.00;0.00;0.00
65973;PMS5003;52729;54.906;73.316;2022-10-28T13:16:52;2.00;1.00;0.00
65973;PMS5003;52729;54.906;73.316;2022-10-28T13:26:35;2.33;2.33;0.00
65973;PMS5003;52729;54.906;73.316;2022-10-28T13:29:42;2.33;2.33;0.00
65973;PMS5003;52729;54.906;73.316;2022-10-28T13:32:43;1.33;1.33;0.00
65973;PMS5003;52729;54.906;73.316;2022-10-28T13:35:44;2.00;2.00;0.00
65973;PMS5003;52729;54.906;73.316;2022-10-28T13:39:05;2.00;1.00;0.00
65973;PMS5003;52729;54.906;73.316;2022-10-28T13:49:34;1.00;0.00;0.00
65973;PMS5003;52729;54.906;73.316;2022-10-28T13:52:40;1.00;0.00;0.00
65973;PMS5003;52729;54.906;73.316;2022-10-28T13:55:42;0.00;0.00;0.00
65973;PMS5003;52729;54.906;73.316;2022-10-28T13:58:56;2.00;1.00;0.00
65973;PMS5003;52729;54.906;73.316;2022-10-28T14:02:13;0.00;0.00;0.00
65973;PMS5003;52729;54.906;73.316;2022-10-28T14:05:16;1.00;1.00;0.00
65973;PMS5003;52729;54.906;73.316;2022-10-28T14:08:20;1.00;0.00;0.00
65973;PMS5003;52729;54.906;73.316;2022-10-28T14:11:22;2.00;0.67;0.00
65973;PMS5003;52729;54.906;73.316;2022-10-28T14:14:24;2.00;2.00;0.00
65973;PMS5003;52729;54.906;73.316;2022-10-28T14:17:29;1.00;0.00;0.00
65973;PMS5003;52729;54.906;73.316;2022-10-28T14:20:35;0.00;0.00;0.00
65973;PMS5003;52729;54.906;73.316;2022-10-28T14:27:39;1.67;0.00;0.00
65973;PMS5003;52729;54.906;73.316;2022-10-28T14:30:19;1.00;1.00;0.00
65973;PMS5003;52729;54.906;73.316;2022-10-28T14:33:20;2.00;1.00;0.00
65973;PMS5003;52729;54.906;73.316;2022-10-28T14:36:28;1.00;1.00;0.00
65973;PMS5003;52729;54.906;73.316;2022-10-28T14:39:37;1.00;0.00;0.00
65973;PMS5003;52729;54.906;73.316;2022-10-28T14:42:52;0.67;0.00;0.00
65973;PMS5003;52729;54.906;73.316;2022-10-28T14:49:19;1.00;1.00;0.00
65973;PMS5003;52729;54.906;73.316;2022-10-28T14:52:27;1.00;0.00;0.00
65973;PMS5003;52729;54.906;73.316;2022-10-28T14:55:29;1.00;0.00;0.00
65973;PMS5003;52729;54.906;73.316;2022-10-28T14:58:37;0.00;0.00;0.00
65973;PMS5003;52729;54.906;73.316;2022-10-28T15:01:56;0.00;0.00;0.00
65973;PMS5003;52729;54.906;73.316;2022-10-28T15:08:15;2.00;1.00;0.00
65973;PMS5003;52729;54.906;73.316;2022-10-28T15:11:17;3.00;2.67;0.00
65973;PMS5003;52729;54.906;73.316;2022-10-28T15:14:25;2.00;2.00;0.00
65973;PMS5003;52729;54.906;73.316;2022-10-28T15:17:28;4.00;2.33;0.00
65973;PMS5003;52729;54.906;73.316;2022-10-28T15:20:34;2.00;2.00;0.00
65973;PMS5003;52729;54.906;73.316;2022-10-28T15:23:35;2.00;1.33;0.00
65973;PMS5003;52729;54.906;73.316;2022-10-28T15:26:36;2.00;1.00;0.00
65973;PMS5003;52729;54.906;73.316;2022-10-28T15:29:37;2.67;2.00;0.00
65973;PMS5003;52729;54.906;73.316;2022-10-28T15:32:38;1.00;1.00;0.00
65973;PMS5003;52729;54.906;73.316;2022-10-28T15:35:39;2.00;2.00;0.00
65973;PMS5003;52729;54.906;73.316;2022-10-28T15:38:40;2.00;1.67;0.00
65973;PMS5003;52729;54.906;73.316;2022-10-28T15:41:48;0.00;0.00;0.00
65973;PMS5003;52729;54.906;73.316;2022-10-28T15:44:55;2.00;2.00;0.00
65973;PMS5003;52729;54.906;73.316;2022-10-28T15:47:57;0.00;0.00;0.00
65973;PMS5003;52729;54.906;73.316;2022-10-28T15:51:13;1.00;1.00;0.00
65973;PMS5003;52729;54.906;73.316;2022-10-28T15:54:19;1.00;1.00;0.00
65973;PMS5003;52729;54.906;73.316;2022-10-28T15:57:34;1.00;1.00;0.00
65973;PMS5003;52729;54.906;73.316;2022-10-28T16:00:52;1.00;0.67;0.00
65973;PMS5003;52729;54.906;73.316;2022-10-28T16:03:54;0.00;0.00;0.00
65973;PMS5003;52729;54.906;73.316;2022-10-28T16:07:08;0.33;0.33;0.00
65973;PMS5003;52729;54.906;73.316;2022-10-28T16:10:13;2.00;1.00;0.00
65973;PMS5003;52729;54.906;73.316;2022-10-28T16:13:21;3.00;3.00;0.00
65973;PMS5003;52729;54.906;73.316;2022-10-28T16:16:28;3.00;3.00;0.00
65973;PMS5003;52729;54.906;73.316;2022-10-28T16:19:32;2.00;2.00;0.00
65973;PMS5003;52729;54.906;73.316;2022-10-28T16:22:34;1.00;1.00;0.00
65973;PMS5003;52729;54.906;73.316;2022-10-28T16:25:36;1.00;1.00;0.00
65973;PMS5003;52729;54.906;73.316;2022-10-28T16:28:37;0.00;0.00;0.00
65973;PMS5003;52729;54.906;73.316;2022-10-28T16:31:45;0.00;0.00;0.00
65973;PMS5003;52729;54.906;73.316;2022-10-28T16:34:49;1.00;1.00;0.00
65973;PMS5003;52729;54.906;73.316;2022-10-28T16:37:50;1.00;0.00;0.00
65973;PMS5003;52729;54.906;73.316;2022-10-28T16:41:00;0.00;0.00;0.00
65973;PMS5003;52729;54.906;73.316;2022-10-28T16:44:01;2.00;0.33;0.00
65973;PMS5003;52729;54.906;73.316;2022-10-28T16:47:13;0.00;0.00;0.00
65973;PMS5003;52729;54.906;73.316;2022-10-28T16:50:14;1.00;0.00;0.00
65973;PMS5003;52729;54.906;73.316;2022-10-28T16:53:18;1.00;0.00;0.00
65973;PMS5003;52729;54.906;73.316;2022-10-28T16:56:19;2.00;1.00;0.00
65973;PMS5003;52729;54.906;73.316;2022-10-28T16:59:20;2.00;1.00;0.00
65973;PMS5003;52729;54.906;73.316;2022-10-28T17:02:32;2.00;2.00;0.00
65973;PMS5003;52729;54.906;73.316;2022-10-28T17:05:50;2.00;2.00;0.00
65973;PMS5003;52729;54.906;73.316;2022-10-28T17:09:03;1.00;1.00;0.00
65973;PMS5003;52729;54.906;73.316;2022-10-28T17:12:04;0.00;0.00;0.00
65973;PMS5003;52729;54.906;73.316;2022-10-28T17:15:05;0.00;0.00;0.00
65973;PMS5003;52729;54.906;73.316;2022-10-28T17:18:07;2.33;2.00;0.00
65973;PMS5003;52729;54.906;73.316;2022-10-28T17:21:08;3.00;2.00;0.00
65973;PMS5003;52729;54.906;73.316;2022-10-28T17:24:09;1.00;1.00;0.00
65973;PMS5003;52729;54.906;73.316;2022-10-28T17:27:10;1.00;1.00;0.00
65973;PMS5003;52729;54.906;73.316;2022-10-28T17:30:23;4.00;3.33;0.00
65973;PMS5003;52729;54.906;73.316;2022-10-28T17:33:23;2.33;2.33;0.00
65973;PMS5003;52729;54.906;73.316;2022-10-28T17:36:30;3.00;2.33;0.00
65973;PMS5003;52729;54.906;73.316;2022-10-28T17:39:32;2.33;2.00;0.00
65973;PMS5003;52729;54.906;73.316;2022-10-28T17:42:38;3.00;3.00;0.00
65973;PMS5003;52729;54.906;73.316;2022-10-28T17:45:42;2.00;2.00;0.00
65973;PMS5003;52729;54.906;73.316;2022-10-28T17:48:53;1.00;1.00;0.00
65973;PMS5003;52729;54.906;73.316;2022-10-28T17:51:54;1.00;1.00;0.00
65973;PMS5003;52729;54.906;73.316;2022-10-28T17:55:01;1.67;0.67;0.00
65973;PMS5003;52729;54.906;73.316;2022-10-28T17:58:02;2.00;1.00;0.00
65973;PMS5003;52729;54.906;73.316;2022-10-28T18:01:04;1.00;1.00;0.00
65973;PMS5003;52729;54.906;73.316;2022-10-28T18:04:05;1.00;1.00;0.00
65973;PMS5003;52729;54.906;73.316;2022-10-28T18:07:08;2.00;1.00;0.00
65973;PMS5003;52729;54.906;73.316;2022-10-28T18:10:08;2.00;1.00;0.00
65973;PMS5003;52729;54.906;73.316;2022-10-28T18:13:12;2.00;1.33;0.00
65973;PMS5003;52729;54.906;73.316;2022-10-28T18:16:20;2.00;2.00;0.00
65973;PMS5003;52729;54.906;73.316;2022-10-28T18:19:22;2.00;2.00;0.00
65973;PMS5003;52729;54.906;73.316;2022-10-28T18:22:22;2.00;2.00;0.00
65973;PMS5003;52729;54.906;73.316;2022-10-28T18:25:23;3.00;2.00;0.00
65973;PMS5003;52729;54.906;73.316;2022-10-28T18:28:25;1.00;1.00;0.00
65973;PMS5003;52729;54.906;73.316;2022-10-28T18:31:29;1.00;1.00;0.00
65973;PMS5003;52729;54.906;73.316;2022-10-28T18:34:31;1.00;1.00;0.00
65973;PMS5003;52729;54.906;73.316;2022-10-28T18:37:32;2.00;2.00;0.00
65973;PMS5003;52729;54.906;73.316;2022-10-28T18:40:46;2.00;2.00;0.00
65973;PMS5003;52729;54.906;73.316;2022-10-28T18:43:50;2.00;2.00;0.00
65973;PMS5003;52729;54.906;73.316;2022-10-28T18:46:59;2.67;2.33;0.00
65973;PMS5003;52729;54.906;73.316;2022-10-28T18:50:03;5.33;5.00;1.00
65973;PMS5003;52729;54.906;73.316;2022-10-28T18:53:07;2.00;2.00;0.00
65973;PMS5003;52729;54.906;73.316;2022-10-28T18:56:12;2.00;2.00;0.00
65973;PMS5003;52729;54.906;73.316;2022-10-28T18:59:23;2.00;1.00;0.00
65973;PMS5003;52729;54.906;73.316;2022-10-28T19:02:24;2.00;2.00;0.00
65973;PMS5003;52729;54.906;73.316;2022-10-28T19:05:35;2.00;2.00;0.00
65973;PMS5003;52729;54.906;73.316;2022-10-28T19:08:40;1.00;1.00;0.00
65973;PMS5003;52729;54.906;73.316;2022-10-28T19:11:41;1.00;1.00;0.00
65973;PMS5003;52729;54.906;73.316;2022-10-28T19:14:42;1.00;0.00;0.00
65973;PMS5003;52729;54.906;73.316;2022-10-28T19:17:50;5.00;5.00;0.00
65973;PMS5003;52729;54.906;73.316;2022-10-28T19:21:01;8.67;8.33;2.00
65973;PMS5003;52729;54.906;73.316;2022-10-28T19:24:13;12.00;11.00;4.00
65973;PMS5003;52729;54.906;73.316;2022-10-28T19:27:14;8.00;7.00;2.00
65973;PMS5003;52729;54.906;73.316;2022-10-28T19:30:19;2.67;2.67;0.00
65973;PMS5003;52729;54.906;73.316;2022-10-28T19:33:25;4.00;2.33;0.00
65973;PMS5003;52729;54.906;73.316;2022-10-28T19:36:31;3.00;2.00;0.00
65973;PMS5003;52729;54.906;73.316;2022-10-28T19:39:32;2.00;2.00;1.00
65973;PMS5003;52729;54.906;73.316;2022-10-28T19:42:33;3.00;2.00;1.00
65973;PMS5003;52729;54.906;73.316;2022-10-28T19:45:39;5.00;2.00;0.00
65973;PMS5003;52729;54.906;73.316;2022-10-28T19:48:45;2.00;2.00;0.00
65973;PMS5003;52729;54.906;73.316;2022-10-28T19:51:52;2.00;2.00;0.00
65973;PMS5003;52729;54.906;73.316;2022-10-28T19:54:53;3.00;2.00;0.00
65973;PMS5003;52729;54.906;73.316;2022-10-28T19:57:54;2.33;2.33;0.00
65973;PMS5003;52729;54.906;73.316;2022-10-28T20:01:01;4.00;4.00;0.00
65973;PMS5003;52729;54.906;73.316;2022-10-28T20:04:03;4.00;4.00;0.00
65973;PMS5003;52729;54.906;73.316;2022-10-28T20:07:04;5.00;3.00;0.00
65973;PMS5003;52729;54.906;73.316;2022-10-28T20:10:05;2.00;2.00;0.00
65973;PMS5003;52729;54.906;73.316;2022-10-28T20:13:06;2.00;2.00;0.00
65973;PMS5003;52729;54.906;73.316;2022-10-28T20:16:13;1.00;1.00;0.00
65973;PMS5003;52729;54.906;73.316;2022-10-28T20:19:13;1.33;1.00;0.00
65973;PMS5003;52729;54.906;73.316;2022-10-28T20:22:14;3.00;3.00;0.00
65973;PMS5003;52729;54.906;73.316;2022-10-28T20:25:21;2.00;2.00;0.00
65973;PMS5003;52729;54.906;73.316;2022-10-28T20:28:32;3.00;2.00;0.00
65973;PMS5003;52729;54.906;73.316;2022-10-28T20:31:46;2.00;1.67;0.00
65973;PMS5003;52729;54.906;73.316;2022-10-28T20:38:13;2.67;2.00;0.00
65973;PMS5003;52729;54.906;73.316;2022-10-28T20:41:20;2.67;2.67;0.00
65973;PMS5003;52729;54.906;73.316;2022-10-28T20:44:21;3.00;2.00;0.00
65973;PMS5003;52729;54.906;73.316;2022-10-28T20:47:32;2.33;2.00;0.00
65973;PMS5003;52729;54.906;73.316;2022-10-28T20:50:33;4.00;3.00;0.00
65973;PMS5003;52729;54.906;73.316;2022-10-28T20:53:47;2.00;2.00;0.00
65973;PMS5003;52729;54.906;73.316;2022-10-28T20:56:51;2.00;2.00;0.00
65973;PMS5003;52729;54.906;73.316;2022-10-28T20:59:52;2.00;2.00;0.00
65973;PMS5003;52729;54.906;73.316;2022-10-28T21:02:53;4.00;2.00;0.00
65973;PMS5003;52729;54.906;73.316;2022-10-28T21:05:54;5.00;3.00;0.00
65973;PMS5003;52729;54.906;73.316;2022-10-28T21:08:55;2.00;2.00;0.00
65973;PMS5003;52729;54.906;73.316;2022-10-28T21:11:56;1.33;1.00;0.00
65973;PMS5003;52729;54.906;73.316;2022-10-28T21:14:57;0.00;0.00;0.00
65973;PMS5003;52729;54.906;73.316;2022-10-28T21:17:58;0.00;0.00;0.00
65973;PMS5003;52729;54.906;73.316;2022-10-28T21:20:59;0.67;0.67;0.00
65973;PMS5003;52729;54.906;73.316;2022-10-28T21:24:00;2.00;2.00;0.00
65973;PMS5003;52729;54.906;73.316;2022-10-28T21:27:01;2.00;2.00;0.00
65973;PMS5003;52729;54.906;73.316;2022-10-28T21:30:02;2.00;2.00;0.00